sensor_id;sensor_type;location;lat;lon;timestamp;P1;durP1;ratioP1;P2;durP2;ratioP2
43628;SDS011;56545;48.224;11.678;2023-04-12T00:01:18;6.57;;;2.25;;
43628;SDS011;56545;48.224;11.678;2023-04-12T00:03:44;6.38;;;2.10;;
43628;SDS011;56545;48.224;11.678;2023-04-12T00:06:14;5.38;;;2.03;;
43628;SDS011;56545;48.224;11.678;2023-04-12T00:08:41;6.05;;;2.00;;
43628;SDS011;56545;48.224;11.678;2023-04-12T00:11:10;4.78;;;2.17;;
43628;SDS011;56545;48.224;11.678;2023-04-12T00:13:36;7.85;;;2.20;;
43628;SDS011;56545;48.224;11.678;2023-04-12T00:16:03;5.65;;;1.90;;
43628;SDS011;56545;48.224;11.678;2023-04-12T00:18:30;6.28;;;2.10;;
43628;SDS011;56545;48.224;11.678;2023-04-12T00:20:56;6.00;;;2.20;;
43628;SDS011;56545;48.224;11.678;2023-04-12T00:23:22;4.40;;;1.85;;
43628;SDS011;56545;48.224;11.678;2023-04-12T00:25:48;8.07;;;1.92;;
43628;SDS011;56545;48.224;11.678;2023-04-12T00:28:14;4.82;;;1.67;;
43628;SDS011;56545;48.224;11.678;2023-04-12T00:30:40;5.20;;;1.70;;
43628;SDS011;56545;48.224;11.678;2023-04-12T00:33:06;5.15;;;1.75;;
43628;SDS011;56545;48.224;11.678;2023-04-12T00:35:32;4.65;;;1.70;;
43628;SDS011;56545;48.224;11.678;2023-04-12T00:37:58;9.60;;;1.90;;
43628;SDS011;56545;48.224;11.678;2023-04-12T00:40:26;6.85;;;1.85;;
43628;SDS011;56545;48.224;11.678;2023-04-12T00:42:52;6.55;;;1.60;;
43628;SDS011;56545;48.224;11.678;2023-04-12T00:45:18;4.25;;;1.70;;
43628;SDS011;56545;48.224;11.678;2023-04-12T00:47:45;5.25;;;1.50;;
43628;SDS011;56545;48.224;11.678;2023-04-12T00:50:11;5.40;;;1.40;;
43628;SDS011;56545;48.224;11.678;2023-04-12T00:52:38;5.93;;;2.08;;
43628;SDS011;56545;48.224;11.678;2023-04-12T00:55:04;4.80;;;1.60;;
43628;SDS011;56545;48.224;11.678;2023-04-12T00:57:32;6.03;;;1.90;;
43628;SDS011;56545;48.224;11.678;2023-04-12T01:00:01;5.85;;;1.80;;
43628;SDS011;56545;48.224;11.678;2023-04-12T01:02:32;4.07;;;1.80;;
43628;SDS011;56545;48.224;11.678;2023-04-12T01:04:58;4.43;;;1.50;;
43628;SDS011;56545;48.224;11.678;2023-04-12T01:07:35;6.20;;;1.60;;
43628;SDS011;56545;48.224;11.678;2023-04-12T01:15:59;3.85;;;1.55;;
43628;SDS011;56545;48.224;11.678;2023-04-12T01:18:36;4.57;;;1.48;;
43628;SDS011;56545;48.224;11.678;2023-04-12T01:21:07;4.68;;;1.42;;
43628;SDS011;56545;48.224;11.678;2023-04-12T01:23:47;3.33;;;1.40;;
43628;SDS011;56545;48.224;11.678;2023-04-12T01:26:41;7.63;;;1.30;;
43628;SDS011;56545;48.224;11.678;2023-04-12T01:29:13;6.03;;;1.40;;
43628;SDS011;56545;48.224;11.678;2023-04-12T01:31:44;3.13;;;1.25;;
43628;SDS011;56545;48.224;11.678;2023-04-12T01:34:22;4.30;;;1.37;;
43628;SDS011;56545;48.224;11.678;2023-04-12T01:36:51;4.32;;;1.27;;
43628;SDS011;56545;48.224;11.678;2023-04-12T01:39:19;4.35;;;1.38;;
43628;SDS011;56545;48.224;11.678;2023-04-12T01:41:45;5.05;;;1.40;;
43628;SDS011;56545;48.224;11.678;2023-04-12T01:44:13;3.40;;;1.20;;
43628;SDS011;56545;48.224;11.678;2023-04-12T01:46:40;5.18;;;1.35;;
43628;SDS011;56545;48.224;11.678;2023-04-12T01:49:08;7.30;;;1.60;;
43628;SDS011;56545;48.224;11.678;2023-04-12T01:51:48;4.47;;;1.48;;
43628;SDS011;56545;48.224;11.678;2023-04-12T01:54:36;3.05;;;1.20;;
43628;SDS011;56545;48.224;11.678;2023-04-12T01:57:05;6.18;;;1.30;;
43628;SDS011;56545;48.224;11.678;2023-04-12T01:59:39;4.47;;;1.30;;
43628;SDS011;56545;48.224;11.678;2023-04-12T02:02:07;5.25;;;1.40;;
43628;SDS011;56545;48.224;11.678;2023-04-12T02:04:34;3.95;;;1.42;;
43628;SDS011;56545;48.224;11.678;2023-04-12T02:07:02;4.30;;;1.30;;
43628;SDS011;56545;48.224;11.678;2023-04-12T02:09:35;5.20;;;1.60;;
43628;SDS011;56545;48.224;11.678;2023-04-12T02:12:05;31.30;;;12.77;;
43628;SDS011;56545;48.224;11.678;2023-04-12T02:14:31;28.50;;;12.40;;
43628;SDS011;56545;48.224;11.678;2023-04-12T02:16:57;41.45;;;17.27;;
43628;SDS011;56545;48.224;11.678;2023-04-12T02:19:26;19.95;;;7.60;;
43628;SDS011;56545;48.224;11.678;2023-04-12T02:21:52;15.57;;;5.43;;
43628;SDS011;56545;48.224;11.678;2023-04-12T02:24:18;7.07;;;2.20;;
43628;SDS011;56545;48.224;11.678;2023-04-12T02:26:44;7.30;;;1.70;;
43628;SDS011;56545;48.224;11.678;2023-04-12T02:29:10;3.50;;;1.40;;
43628;SDS011;56545;48.224;11.678;2023-04-12T02:31:36;5.35;;;1.40;;
43628;SDS011;56545;48.224;11.678;2023-04-12T02:34:03;5.80;;;1.73;;
43628;SDS011;56545;48.224;11.678;2023-04-12T02:36:29;4.68;;;1.45;;
43628;SDS011;56545;48.224;11.678;2023-04-12T02:38:55;3.05;;;1.30;;
43628;SDS011;56545;48.224;11.678;2023-04-12T02:41:22;6.03;;;1.58;;
43628;SDS011;56545;48.224;11.678;2023-04-12T02:43:48;4.07;;;1.50;;
43628;SDS011;56545;48.224;11.678;2023-04-12T02:46:19;5.10;;;1.40;;
43628;SDS011;56545;48.224;11.678;2023-04-12T02:48:48;4.80;;;1.52;;
43628;SDS011;56545;48.224;11.678;2023-04-12T02:51:14;4.43;;;1.50;;
43628;SDS011;56545;48.224;11.678;2023-04-12T02:53:41;5.20;;;1.45;;
43628;SDS011;56545;48.224;11.678;2023-04-12T02:56:07;4.22;;;1.35;;
43628;SDS011;56545;48.224;11.678;2023-04-12T02:58:34;5.75;;;1.40;;
43628;SDS011;56545;48.224;11.678;2023-04-12T03:01:00;5.35;;;1.60;;
43628;SDS011;56545;48.224;11.678;2023-04-12T03:03:31;4.93;;;1.30;;
43628;SDS011;56545;48.224;11.678;2023-04-12T03:05:58;5.38;;;1.55;;
43628;SDS011;56545;48.224;11.678;2023-04-12T03:08:25;4.97;;;1.50;;
43628;SDS011;56545;48.224;11.678;2023-04-12T03:10:51;5.70;;;1.90;;
43628;SDS011;56545;48.224;11.678;2023-04-12T03:13:16;6.45;;;2.05;;
43628;SDS011;56545;48.224;11.678;2023-04-12T03:15:42;7.72;;;1.98;;
43628;SDS011;56545;48.224;11.678;2023-04-12T03:18:10;6.78;;;1.70;;
43628;SDS011;56545;48.224;11.678;2023-04-12T03:20:36;5.07;;;1.70;;
43628;SDS011;56545;48.224;11.678;2023-04-12T03:23:03;4.28;;;1.50;;
43628;SDS011;56545;48.224;11.678;2023-04-12T03:25:29;7.50;;;1.77;;
43628;SDS011;56545;48.224;11.678;2023-04-12T03:27:55;4.95;;;1.52;;
43628;SDS011;56545;48.224;11.678;2023-04-12T03:30:21;4.55;;;1.40;;
43628;SDS011;56545;48.224;11.678;2023-04-12T03:32:47;5.05;;;1.30;;
43628;SDS011;56545;48.224;11.678;2023-04-12T03:35:13;5.63;;;1.50;;
43628;SDS011;56545;48.224;11.678;2023-04-12T03:37:40;5.22;;;1.50;;
43628;SDS011;56545;48.224;11.678;2023-04-12T03:40:07;5.70;;;1.65;;
43628;SDS011;56545;48.224;11.678;2023-04-12T03:42:34;4.10;;;1.20;;
43628;SDS011;56545;48.224;11.678;2023-04-12T03:45:00;4.30;;;1.40;;
43628;SDS011;56545;48.224;11.678;2023-04-12T03:47:26;4.20;;;1.38;;
43628;SDS011;56545;48.224;11.678;2023-04-12T03:49:54;5.68;;;1.73;;
43628;SDS011;56545;48.224;11.678;2023-04-12T03:52:20;4.85;;;1.25;;
43628;SDS011;56545;48.224;11.678;2023-04-12T03:54:46;4.30;;;1.50;;
43628;SDS011;56545;48.224;11.678;2023-04-12T03:57:12;5.22;;;1.40;;
43628;SDS011;56545;48.224;11.678;2023-04-12T03:59:37;3.40;;;1.40;;
43628;SDS011;56545;48.224;11.678;2023-04-12T04:02:03;4.47;;;1.30;;
43628;SDS011;56545;48.224;11.678;2023-04-12T04:04:29;4.38;;;1.45;;
43628;SDS011;56545;48.224;11.678;2023-04-12T04:06:55;7.72;;;1.30;;
43628;SDS011;56545;48.224;11.678;2023-04-12T04:09:21;7.57;;;1.58;;
43628;SDS011;56545;48.224;11.678;2023-04-12T04:11:47;4.50;;;1.40;;
43628;SDS011;56545;48.224;11.678;2023-04-12T04:14:15;5.15;;;1.50;;
43628;SDS011;56545;48.224;11.678;2023-04-12T04:16:41;3.78;;;1.30;;
43628;SDS011;56545;48.224;11.678;2023-04-12T04:19:07;8.60;;;1.88;;
43628;SDS011;56545;48.224;11.678;2023-04-12T04:21:33;6.88;;;1.60;;
43628;SDS011;56545;48.224;11.678;2023-04-12T04:23:59;6.45;;;1.52;;
43628;SDS011;56545;48.224;11.678;2023-04-12T04:26:25;4.70;;;1.40;;
43628;SDS011;56545;48.224;11.678;2023-04-12T04:28:57;4.72;;;1.65;;
43628;SDS011;56545;48.224;11.678;2023-04-12T04:31:27;3.65;;;1.27;;
43628;SDS011;56545;48.224;11.678;2023-04-12T04:34:03;4.57;;;1.35;;
43628;SDS011;56545;48.224;11.678;2023-04-12T04:36:32;6.10;;;1.58;;
43628;SDS011;56545;48.224;11.678;2023-04-12T04:38:59;4.70;;;1.20;;
43628;SDS011;56545;48.224;11.678;2023-04-12T04:41:26;6.82;;;1.60;;
43628;SDS011;56545;48.224;11.678;2023-04-12T04:43:52;5.15;;;1.35;;
43628;SDS011;56545;48.224;11.678;2023-04-12T04:46:18;3.88;;;1.20;;
43628;SDS011;56545;48.224;11.678;2023-04-12T04:48:48;6.53;;;1.33;;
43628;SDS011;56545;48.224;11.678;2023-04-12T04:51:15;7.25;;;1.70;;
43628;SDS011;56545;48.224;11.678;2023-04-12T04:53:42;5.50;;;1.42;;
43628;SDS011;56545;48.224;11.678;2023-04-12T04:56:08;6.78;;;1.65;;
43628;SDS011;56545;48.224;11.678;2023-04-12T04:58:34;5.55;;;1.50;;
43628;SDS011;56545;48.224;11.678;2023-04-12T05:01:00;6.18;;;1.50;;
43628;SDS011;56545;48.224;11.678;2023-04-12T05:03:27;4.65;;;1.30;;
43628;SDS011;56545;48.224;11.678;2023-04-12T05:05:53;4.13;;;1.35;;
43628;SDS011;56545;48.224;11.678;2023-04-12T05:08:20;5.25;;;1.40;;
43628;SDS011;56545;48.224;11.678;2023-04-12T05:10:50;3.33;;;1.25;;
43628;SDS011;56545;48.224;11.678;2023-04-12T05:13:17;4.22;;;1.40;;
43628;SDS011;56545;48.224;11.678;2023-04-12T05:15:43;4.22;;;1.45;;
43628;SDS011;56545;48.224;11.678;2023-04-12T05:18:09;5.05;;;1.60;;
43628;SDS011;56545;48.224;11.678;2023-04-12T05:20:38;3.00;;;1.10;;
43628;SDS011;56545;48.224;11.678;2023-04-12T05:23:04;4.95;;;1.45;;
43628;SDS011;56545;48.224;11.678;2023-04-12T05:25:30;6.63;;;1.40;;
43628;SDS011;56545;48.224;11.678;2023-04-12T05:27:57;3.17;;;1.13;;
43628;SDS011;56545;48.224;11.678;2023-04-12T05:30:23;5.30;;;1.60;;
43628;SDS011;56545;48.224;11.678;2023-04-12T05:32:49;5.60;;;1.45;;
43628;SDS011;56545;48.224;11.678;2023-04-12T05:35:15;5.43;;;1.58;;
43628;SDS011;56545;48.224;11.678;2023-04-12T05:37:41;3.97;;;1.35;;
43628;SDS011;56545;48.224;11.678;2023-04-12T05:40:07;4.90;;;1.35;;
43628;SDS011;56545;48.224;11.678;2023-04-12T05:42:34;4.32;;;1.45;;
43628;SDS011;56545;48.224;11.678;2023-04-12T05:45:03;4.32;;;1.50;;
43628;SDS011;56545;48.224;11.678;2023-04-12T05:47:30;4.65;;;1.58;;
43628;SDS011;56545;48.224;11.678;2023-04-12T05:49:56;4.43;;;1.33;;
43628;SDS011;56545;48.224;11.678;2023-04-12T05:52:21;5.15;;;1.92;;
43628;SDS011;56545;48.224;11.678;2023-04-12T05:54:47;5.38;;;1.50;;
43628;SDS011;56545;48.224;11.678;2023-04-12T05:57:13;6.38;;;1.75;;
43628;SDS011;56545;48.224;11.678;2023-04-12T05:59:41;4.25;;;1.50;;
43628;SDS011;56545;48.224;11.678;2023-04-12T06:02:07;4.47;;;1.38;;
43628;SDS011;56545;48.224;11.678;2023-04-12T06:04:34;3.78;;;1.15;;
43628;SDS011;56545;48.224;11.678;2023-04-12T06:07:02;4.88;;;1.30;;
43628;SDS011;56545;48.224;11.678;2023-04-12T06:09:29;5.45;;;1.38;;
43628;SDS011;56545;48.224;11.678;2023-04-12T06:11:55;5.68;;;1.23;;
43628;SDS011;56545;48.224;11.678;2023-04-12T06:14:21;5.38;;;1.50;;
43628;SDS011;56545;48.224;11.678;2023-04-12T06:16:47;4.70;;;1.25;;
43628;SDS011;56545;48.224;11.678;2023-04-12T06:19:13;3.17;;;0.98;;
43628;SDS011;56545;48.224;11.678;2023-04-12T06:21:39;5.13;;;1.20;;
43628;SDS011;56545;48.224;11.678;2023-04-12T06:24:05;5.07;;;1.33;;
43628;SDS011;56545;48.224;11.678;2023-04-12T06:26:31;5.20;;;1.40;;
43628;SDS011;56545;48.224;11.678;2023-04-12T06:28:57;3.60;;;1.23;;
43628;SDS011;56545;48.224;11.678;2023-04-12T06:31:23;4.88;;;1.58;;
43628;SDS011;56545;48.224;11.678;2023-04-12T06:33:49;6.95;;;1.60;;
43628;SDS011;56545;48.224;11.678;2023-04-12T06:36:15;6.45;;;1.38;;
43628;SDS011;56545;48.224;11.678;2023-04-12T06:38:41;5.28;;;1.40;;
43628;SDS011;56545;48.224;11.678;2023-04-12T06:41:07;6.05;;;1.40;;
43628;SDS011;56545;48.224;11.678;2023-04-12T06:43:33;4.53;;;1.50;;
43628;SDS011;56545;48.224;11.678;2023-04-12T06:46:00;5.28;;;1.40;;
43628;SDS011;56545;48.224;11.678;2023-04-12T06:48:27;7.18;;;1.63;;
43628;SDS011;56545;48.224;11.678;2023-04-12T06:50:53;3.53;;;1.30;;
43628;SDS011;56545;48.224;11.678;2023-04-12T06:53:19;6.47;;;2.30;;
43628;SDS011;56545;48.224;11.678;2023-04-12T06:55:45;6.63;;;2.22;;
43628;SDS011;56545;48.224;11.678;2023-04-12T06:58:12;5.72;;;2.15;;
43628;SDS011;56545;48.224;11.678;2023-04-12T07:00:38;8.05;;;2.10;;
43628;SDS011;56545;48.224;11.678;2023-04-12T07:03:04;7.63;;;2.20;;
43628;SDS011;56545;48.224;11.678;2023-04-12T07:05:30;5.75;;;1.55;;
43628;SDS011;56545;48.224;11.678;2023-04-12T07:07:55;5.68;;;1.58;;
43628;SDS011;56545;48.224;11.678;2023-04-12T07:10:21;6.45;;;1.42;;
43628;SDS011;56545;48.224;11.678;2023-04-12T07:12:47;5.68;;;1.50;;
43628;SDS011;56545;48.224;11.678;2023-04-12T07:15:13;3.95;;;1.50;;
43628;SDS011;56545;48.224;11.678;2023-04-12T07:17:39;5.45;;;1.45;;
43628;SDS011;56545;48.224;11.678;2023-04-12T07:20:05;5.25;;;1.52;;
43628;SDS011;56545;48.224;11.678;2023-04-12T07:22:31;5.53;;;1.25;;
43628;SDS011;56545;48.224;11.678;2023-04-12T07:24:57;4.05;;;1.48;;
43628;SDS011;56545;48.224;11.678;2023-04-12T07:27:23;3.25;;;1.25;;
43628;SDS011;56545;48.224;11.678;2023-04-12T07:29:50;4.53;;;1.50;;
43628;SDS011;56545;48.224;11.678;2023-04-12T07:32:17;5.05;;;1.45;;
43628;SDS011;56545;48.224;11.678;2023-04-12T07:34:43;7.88;;;1.67;;
43628;SDS011;56545;48.224;11.678;2023-04-12T07:37:09;4.95;;;1.50;;
43628;SDS011;56545;48.224;11.678;2023-04-12T07:39:35;4.65;;;1.63;;
43628;SDS011;56545;48.224;11.678;2023-04-12T07:42:03;6.30;;;1.38;;
43628;SDS011;56545;48.224;11.678;2023-04-12T07:44:29;5.03;;;1.58;;
43628;SDS011;56545;48.224;11.678;2023-04-12T07:46:55;4.03;;;1.40;;
43628;SDS011;56545;48.224;11.678;2023-04-12T07:49:21;6.38;;;1.63;;
43628;SDS011;56545;48.224;11.678;2023-04-12T07:51:47;5.18;;;1.50;;
43628;SDS011;56545;48.224;11.678;2023-04-12T07:54:13;5.50;;;1.52;;
43628;SDS011;56545;48.224;11.678;2023-04-12T07:56:39;6.40;;;1.70;;
43628;SDS011;56545;48.224;11.678;2023-04-12T07:59:05;4.47;;;1.30;;
43628;SDS011;56545;48.224;11.678;2023-04-12T08:01:31;5.72;;;1.45;;
43628;SDS011;56545;48.224;11.678;2023-04-12T08:03:57;5.00;;;1.38;;
43628;SDS011;56545;48.224;11.678;2023-04-12T08:06:23;4.97;;;1.27;;
43628;SDS011;56545;48.224;11.678;2023-04-12T08:08:50;6.13;;;1.52;;
43628;SDS011;56545;48.224;11.678;2023-04-12T08:11:17;4.63;;;1.40;;
43628;SDS011;56545;48.224;11.678;2023-04-12T08:13:43;5.45;;;1.50;;
43628;SDS011;56545;48.224;11.678;2023-04-12T08:16:09;4.15;;;1.33;;
43628;SDS011;56545;48.224;11.678;2023-04-12T08:18:36;4.15;;;1.35;;
43628;SDS011;56545;48.224;11.678;2023-04-12T08:21:02;3.28;;;1.25;;
43628;SDS011;56545;48.224;11.678;2023-04-12T08:23:28;3.58;;;1.33;;
43628;SDS011;56545;48.224;11.678;2023-04-12T08:25:54;7.60;;;1.45;;
43628;SDS011;56545;48.224;11.678;2023-04-12T08:28:27;4.32;;;1.35;;
43628;SDS011;56545;48.224;11.678;2023-04-12T08:30:53;5.28;;;1.25;;
43628;SDS011;56545;48.224;11.678;2023-04-12T08:33:19;3.72;;;1.30;;
43628;SDS011;56545;48.224;11.678;2023-04-12T08:35:45;6.07;;;1.30;;
43628;SDS011;56545;48.224;11.678;2023-04-12T08:38:11;4.80;;;1.20;;
43628;SDS011;56545;48.224;11.678;2023-04-12T08:40:37;3.13;;;1.20;;
43628;SDS011;56545;48.224;11.678;2023-04-12T08:43:07;4.65;;;1.30;;
43628;SDS011;56545;48.224;11.678;2023-04-12T08:45:35;4.65;;;1.60;;
43628;SDS011;56545;48.224;11.678;2023-04-12T08:48:02;3.45;;;1.17;;
43628;SDS011;56545;48.224;11.678;2023-04-12T08:50:29;2.88;;;1.33;;
43628;SDS011;56545;48.224;11.678;2023-04-12T08:52:57;4.28;;;1.50;;
43628;SDS011;56545;48.224;11.678;2023-04-12T08:55:23;4.82;;;1.40;;
43628;SDS011;56545;48.224;11.678;2023-04-12T08:57:50;4.47;;;1.60;;
43628;SDS011;56545;48.224;11.678;2023-04-12T09:00:19;4.32;;;1.40;;
43628;SDS011;56545;48.224;11.678;2023-04-12T09:02:45;5.25;;;1.30;;
43628;SDS011;56545;48.224;11.678;2023-04-12T09:05:13;3.42;;;1.60;;
43628;SDS011;56545;48.224;11.678;2023-04-12T09:07:39;5.15;;;1.33;;
43628;SDS011;56545;48.224;11.678;2023-04-12T09:10:06;6.13;;;1.50;;
43628;SDS011;56545;48.224;11.678;2023-04-12T09:12:32;3.05;;;1.30;;
43628;SDS011;56545;48.224;11.678;2023-04-12T09:15:08;4.28;;;1.48;;
43628;SDS011;56545;48.224;11.678;2023-04-12T09:17:39;5.60;;;1.65;;
43628;SDS011;56545;48.224;11.678;2023-04-12T09:22:45;6.00;;;1.40;;
43628;SDS011;56545;48.224;11.678;2023-04-12T09:25:11;4.18;;;1.40;;
43628;SDS011;56545;48.224;11.678;2023-04-12T09:28:16;4.30;;;1.42;;
43628;SDS011;56545;48.224;11.678;2023-04-12T09:30:42;4.30;;;1.70;;
43628;SDS011;56545;48.224;11.678;2023-04-12T09:33:11;3.28;;;1.40;;
43628;SDS011;56545;48.224;11.678;2023-04-12T09:35:37;4.65;;;1.60;;
43628;SDS011;56545;48.224;11.678;2023-04-12T09:38:06;3.10;;;1.50;;
43628;SDS011;56545;48.224;11.678;2023-04-12T09:40:36;2.97;;;1.50;;
43628;SDS011;56545;48.224;11.678;2023-04-12T09:43:02;4.18;;;1.50;;
43628;SDS011;56545;48.224;11.678;2023-04-12T09:45:31;3.63;;;1.50;;
43628;SDS011;56545;48.224;11.678;2023-04-12T09:48:02;3.97;;;1.50;;
43628;SDS011;56545;48.224;11.678;2023-04-12T09:50:29;3.83;;;1.60;;
43628;SDS011;56545;48.224;11.678;2023-04-12T09:52:57;3.95;;;1.70;;
43628;SDS011;56545;48.224;11.678;2023-04-12T09:55:26;4.10;;;1.33;;
43628;SDS011;56545;48.224;11.678;2023-04-12T09:57:53;4.32;;;1.63;;
43628;SDS011;56545;48.224;11.678;2023-04-12T10:00:23;3.65;;;1.20;;
43628;SDS011;56545;48.224;11.678;2023-04-12T10:02:51;3.67;;;1.30;;
43628;SDS011;56545;48.224;11.678;2023-04-12T10:05:22;5.07;;;2.10;;
43628;SDS011;56545;48.224;11.678;2023-04-12T10:07:49;4.50;;;1.50;;
43628;SDS011;56545;48.224;11.678;2023-04-12T10:10:17;3.40;;;1.38;;
43628;SDS011;56545;48.224;11.678;2023-04-12T10:12:44;3.53;;;1.30;;
43628;SDS011;56545;48.224;11.678;2023-04-12T10:15:11;3.58;;;1.35;;
43628;SDS011;56545;48.224;11.678;2023-04-12T10:17:45;3.85;;;1.40;;
43628;SDS011;56545;48.224;11.678;2023-04-12T10:20:16;3.67;;;1.10;;
43628;SDS011;56545;48.224;11.678;2023-04-12T10:22:47;2.42;;;1.20;;
43628;SDS011;56545;48.224;11.678;2023-04-12T10:25:21;2.55;;;1.13;;
43628;SDS011;56545;48.224;11.678;2023-04-12T10:27:49;2.88;;;1.20;;
43628;SDS011;56545;48.224;11.678;2023-04-12T10:30:25;3.47;;;1.10;;
43628;SDS011;56545;48.224;11.678;2023-04-12T10:35:27;3.03;;;1.10;;
43628;SDS011;56545;48.224;11.678;2023-04-12T10:38:01;2.15;;;1.00;;
43628;SDS011;56545;48.224;11.678;2023-04-12T10:40:28;4.30;;;1.33;;
43628;SDS011;56545;48.224;11.678;2023-04-12T10:43:22;2.30;;;1.20;;
43628;SDS011;56545;48.224;11.678;2023-04-12T10:45:50;1.85;;;0.90;;
43628;SDS011;56545;48.224;11.678;2023-04-12T10:48:50;1.25;;;0.80;;
43628;SDS011;56545;48.224;11.678;2023-04-12T10:51:20;1.33;;;0.68;;
43628;SDS011;56545;48.224;11.678;2023-04-12T10:53:53;2.25;;;1.00;;
43628;SDS011;56545;48.224;11.678;2023-04-12T10:59:00;3.10;;;1.45;;
43628;SDS011;56545;48.224;11.678;2023-04-12T11:01:27;2.55;;;1.05;;
43628;SDS011;56545;48.224;11.678;2023-04-12T11:04:03;2.10;;;1.08;;
43628;SDS011;56545;48.224;11.678;2023-04-12T11:06:39;2.05;;;1.10;;
43628;SDS011;56545;48.224;11.678;2023-04-12T11:09:36;1.73;;;1.02;;
43628;SDS011;56545;48.224;11.678;2023-04-12T11:14:45;1.75;;;0.57;;
43628;SDS011;56545;48.224;11.678;2023-04-12T11:19:39;1.77;;;0.70;;
43628;SDS011;56545;48.224;11.678;2023-04-12T11:22:10;2.42;;;0.90;;
43628;SDS011;56545;48.224;11.678;2023-04-12T11:24:43;2.22;;;1.05;;
43628;SDS011;56545;48.224;11.678;2023-04-12T11:27:12;2.92;;;1.20;;
43628;SDS011;56545;48.224;11.678;2023-04-12T11:29:40;1.60;;;0.75;;
43628;SDS011;56545;48.224;11.678;2023-04-12T11:32:09;2.22;;;0.93;;
43628;SDS011;56545;48.224;11.678;2023-04-12T11:34:39;3.03;;;0.90;;
43628;SDS011;56545;48.224;11.678;2023-04-12T11:37:07;1.95;;;0.82;;
43628;SDS011;56545;48.224;11.678;2023-04-12T11:39:37;2.78;;;0.90;;
43628;SDS011;56545;48.224;11.678;2023-04-12T11:42:05;2.40;;;1.00;;
43628;SDS011;56545;48.224;11.678;2023-04-12T11:44:34;2.00;;;1.17;;
43628;SDS011;56545;48.224;11.678;2023-04-12T11:47:01;3.10;;;1.17;;
43628;SDS011;56545;48.224;11.678;2023-04-12T11:49:28;2.85;;;1.00;;
43628;SDS011;56545;48.224;11.678;2023-04-12T11:52:00;2.63;;;0.90;;
43628;SDS011;56545;48.224;11.678;2023-04-12T11:54:30;2.35;;;0.93;;
43628;SDS011;56545;48.224;11.678;2023-04-12T11:56:58;2.33;;;1.10;;
43628;SDS011;56545;48.224;11.678;2023-04-12T11:59:30;3.13;;;1.20;;
43628;SDS011;56545;48.224;11.678;2023-04-12T12:01:58;3.03;;;1.10;;
43628;SDS011;56545;48.224;11.678;2023-04-12T12:04:26;3.65;;;1.08;;
43628;SDS011;56545;48.224;11.678;2023-04-12T12:06:54;3.60;;;1.00;;
43628;SDS011;56545;48.224;11.678;2023-04-12T12:09:21;2.60;;;1.10;;
43628;SDS011;56545;48.224;11.678;2023-04-12T12:11:48;4.53;;;1.38;;
43628;SDS011;56545;48.224;11.678;2023-04-12T12:14:21;3.25;;;1.20;;
43628;SDS011;56545;48.224;11.678;2023-04-12T12:16:52;2.97;;;1.30;;
43628;SDS011;56545;48.224;11.678;2023-04-12T12:19:29;3.10;;;1.20;;
43628;SDS011;56545;48.224;11.678;2023-04-12T12:22:11;2.53;;;1.10;;
43628;SDS011;56545;48.224;11.678;2023-04-12T12:24:57;2.20;;;0.95;;
43628;SDS011;56545;48.224;11.678;2023-04-12T12:30:01;3.22;;;1.20;;
43628;SDS011;56545;48.224;11.678;2023-04-12T12:32:34;3.17;;;1.00;;
43628;SDS011;56545;48.224;11.678;2023-04-12T12:35:01;3.90;;;1.20;;
43628;SDS011;56545;48.224;11.678;2023-04-12T12:37:33;4.55;;;1.33;;
43628;SDS011;56545;48.224;11.678;2023-04-12T12:40:09;2.05;;;1.00;;
43628;SDS011;56545;48.224;11.678;2023-04-12T12:42:49;4.25;;;1.10;;
43628;SDS011;56545;48.224;11.678;2023-04-12T12:45:17;4.32;;;1.20;;
43628;SDS011;56545;48.224;11.678;2023-04-12T12:48:03;2.50;;;1.00;;
43628;SDS011;56545;48.224;11.678;2023-04-12T12:50:30;2.40;;;1.10;;
43628;SDS011;56545;48.224;11.678;2023-04-12T12:52:57;3.65;;;1.17;;
43628;SDS011;56545;48.224;11.678;2023-04-12T12:55:26;3.35;;;1.30;;
43628;SDS011;56545;48.224;11.678;2023-04-12T12:57:54;4.22;;;1.40;;
43628;SDS011;56545;48.224;11.678;2023-04-12T13:00:21;2.40;;;1.17;;
43628;SDS011;56545;48.224;11.678;2023-04-12T13:02:49;3.53;;;1.10;;
43628;SDS011;56545;48.224;11.678;2023-04-12T13:05:15;3.60;;;1.10;;
43628;SDS011;56545;48.224;11.678;2023-04-12T13:07:41;2.67;;;1.00;;
43628;SDS011;56545;48.224;11.678;2023-04-12T13:10:08;3.20;;;1.08;;
43628;SDS011;56545;48.224;11.678;2023-04-12T13:12:34;3.05;;;1.20;;
43628;SDS011;56545;48.224;11.678;2023-04-12T13:15:01;3.08;;;1.10;;
43628;SDS011;56545;48.224;11.678;2023-04-12T13:17:27;7.32;;;4.05;;
43628;SDS011;56545;48.224;11.678;2023-04-12T13:19:54;2.28;;;1.10;;
43628;SDS011;56545;48.224;11.678;2023-04-12T13:22:20;2.47;;;1.00;;
43628;SDS011;56545;48.224;11.678;2023-04-12T13:24:46;2.65;;;1.00;;
43628;SDS011;56545;48.224;11.678;2023-04-12T13:27:13;3.22;;;1.10;;
43628;SDS011;56545;48.224;11.678;2023-04-12T13:29:39;4.82;;;1.20;;
43628;SDS011;56545;48.224;11.678;2023-04-12T13:32:05;2.85;;;1.05;;
43628;SDS011;56545;48.224;11.678;2023-04-12T13:34:32;3.15;;;1.17;;
43628;SDS011;56545;48.224;11.678;2023-04-12T13:36:58;3.75;;;1.10;;
43628;SDS011;56545;48.224;11.678;2023-04-12T13:39:24;2.70;;;1.20;;
43628;SDS011;56545;48.224;11.678;2023-04-12T13:41:50;2.90;;;1.20;;
43628;SDS011;56545;48.224;11.678;2023-04-12T13:44:16;3.90;;;1.20;;
43628;SDS011;56545;48.224;11.678;2023-04-12T13:46:42;3.28;;;1.15;;
43628;SDS011;56545;48.224;11.678;2023-04-12T13:49:09;2.53;;;1.05;;
43628;SDS011;56545;48.224;11.678;2023-04-12T13:51:35;4.10;;;1.30;;
43628;SDS011;56545;48.224;11.678;2023-04-12T13:54:01;3.58;;;1.17;;
43628;SDS011;56545;48.224;11.678;2023-04-12T13:56:27;4.53;;;1.30;;
43628;SDS011;56545;48.224;11.678;2023-04-12T13:58:53;3.17;;;1.48;;
43628;SDS011;56545;48.224;11.678;2023-04-12T14:01:20;3.60;;;1.10;;
43628;SDS011;56545;48.224;11.678;2023-04-12T14:03:47;4.72;;;1.38;;
43628;SDS011;56545;48.224;11.678;2023-04-12T14:06:13;4.43;;;1.30;;
43628;SDS011;56545;48.224;11.678;2023-04-12T14:08:39;3.50;;;1.15;;
43628;SDS011;56545;48.224;11.678;2023-04-12T14:11:05;3.13;;;1.30;;
43628;SDS011;56545;48.224;11.678;2023-04-12T14:13:31;5.13;;;1.27;;
43628;SDS011;56545;48.224;11.678;2023-04-12T14:15:57;4.68;;;1.48;;
43628;SDS011;56545;48.224;11.678;2023-04-12T14:18:23;3.22;;;1.30;;
43628;SDS011;56545;48.224;11.678;2023-04-12T14:20:49;2.97;;;1.00;;
43628;SDS011;56545;48.224;11.678;2023-04-12T14:23:19;3.75;;;1.55;;
43628;SDS011;56545;48.224;11.678;2023-04-12T14:25:47;4.28;;;1.15;;
43628;SDS011;56545;48.224;11.678;2023-04-12T14:28:13;3.45;;;1.15;;
43628;SDS011;56545;48.224;11.678;2023-04-12T14:30:44;3.28;;;1.00;;
43628;SDS011;56545;48.224;11.678;2023-04-12T14:33:10;3.88;;;1.10;;
43628;SDS011;56545;48.224;11.678;2023-04-12T14:35:36;5.20;;;1.83;;
43628;SDS011;56545;48.224;11.678;2023-04-12T14:38:03;4.18;;;1.27;;
43628;SDS011;56545;48.224;11.678;2023-04-12T14:40:29;3.35;;;1.10;;
43628;SDS011;56545;48.224;11.678;2023-04-12T14:42:55;2.35;;;1.13;;
43628;SDS011;56545;48.224;11.678;2023-04-12T14:45:21;3.42;;;1.10;;
43628;SDS011;56545;48.224;11.678;2023-04-12T14:47:47;3.85;;;1.40;;
43628;SDS011;56545;48.224;11.678;2023-04-12T14:50:13;3.08;;;1.20;;
43628;SDS011;56545;48.224;11.678;2023-04-12T14:52:40;3.97;;;0.90;;
43628;SDS011;56545;48.224;11.678;2023-04-12T14:55:06;5.25;;;1.00;;
43628;SDS011;56545;48.224;11.678;2023-04-12T14:57:35;2.50;;;1.00;;
43628;SDS011;56545;48.224;11.678;2023-04-12T15:00:01;3.08;;;1.00;;